createdAt,value
2019-03-02T00:01:21.586Z,16.93
2019-03-02T00:04:01.662Z,14.55
2019-03-02T00:06:41.495Z,18.65
2019-03-02T00:09:21.658Z,18.05
2019-03-02T00:12:01.422Z,19.80
2019-03-02T00:14:41.426Z,16.93
2019-03-02T00:17:21.245Z,18.42
2019-03-02T00:20:00.921Z,17.87
2019-03-02T00:22:43.495Z,15.50
2019-03-02T00:25:22.436Z,15.65
2019-03-02T00:28:02.242Z,16.80
2019-03-02T00:30:42.248Z,15.28
2019-03-02T00:33:22.039Z,15.20
2019-03-02T00:36:21.089Z,18.48
2019-03-02T00:39:01.624Z,18.67
2019-03-02T00:41:43.254Z,16.60
2019-03-02T00:44:23.142Z,14.68
2019-03-02T00:47:02.885Z,12.88
2019-03-02T00:49:44.906Z,16.52
2019-03-02T00:52:25.715Z,14.73
2019-03-02T00:55:05.825Z,17.65
2019-03-02T00:57:45.537Z,14.03
2019-03-02T01:00:25.745Z,13.45
2019-03-02T01:03:06.110Z,15.18
2019-03-02T01:05:46.164Z,17.90
2019-03-02T01:08:25.977Z,16.93
2019-03-02T01:11:05.942Z,20.80
2019-03-02T01:13:45.718Z,19.82
2019-03-02T01:16:25.727Z,16.20
2019-03-02T01:19:06.735Z,15.65
2019-03-02T01:21:46.710Z,17.67
2019-03-02T01:24:26.431Z,18.30
2019-03-02T01:27:07.539Z,20.08
2019-03-02T01:29:47.301Z,21.27
2019-03-02T01:32:27.256Z,15.10
2019-03-02T01:35:07.250Z,14.78
2019-03-02T01:37:47.061Z,19.20
2019-03-02T01:40:27.020Z,16.65
2019-03-02T01:43:07.808Z,16.35
2019-03-02T01:45:47.759Z,13.72
2019-03-02T01:48:27.954Z,16.95
2019-03-02T01:51:07.983Z,13.35
2019-03-02T01:53:47.961Z,15.60
2019-03-02T01:56:27.715Z,12.20
2019-03-02T01:59:07.997Z,13.08
2019-03-02T02:01:48.898Z,13.68
2019-03-02T02:04:29.148Z,11.00
2019-03-02T02:07:14.391Z,12.45
2019-03-02T02:09:54.757Z,11.63
2019-03-02T02:12:34.672Z,13.98
2019-03-02T02:15:18.111Z,9.75
2019-03-02T02:17:57.975Z,12.47
2019-03-02T02:20:37.473Z,14.23
2019-03-02T02:23:17.309Z,14.07
2019-03-02T02:26:00.012Z,13.43
2019-03-02T02:28:39.817Z,12.73
2019-03-02T02:31:19.939Z,13.75
2019-03-02T02:33:59.610Z,13.70
2019-03-02T02:36:39.564Z,13.22
2019-03-02T02:39:19.422Z,12.73
2019-03-02T02:42:00.006Z,14.73
2019-03-02T02:44:41.062Z,12.53
2019-03-02T02:47:22.801Z,16.48
2019-03-02T02:50:02.646Z,12.82
2019-03-02T02:52:44.260Z,13.32
2019-03-02T02:55:24.487Z,16.80
2019-03-02T02:58:03.755Z,13.75
2019-03-02T03:00:43.517Z,14.60
2019-03-02T03:03:23.465Z,15.25
2019-03-02T03:06:03.218Z,16.67
2019-03-02T03:08:45.403Z,19.62
2019-03-02T03:11:25.265Z,17.62
2019-03-02T03:14:05.318Z,17.40
2019-03-02T03:16:45.188Z,15.78
2019-03-02T03:19:26.169Z,14.68
2019-03-02T03:22:07.551Z,14.85
2019-03-02T03:24:48.268Z,14.73
2019-03-02T03:27:29.776Z,15.58
2019-03-02T03:30:10.322Z,16.07
2019-03-02T03:32:56.083Z,15.25
2019-03-02T03:35:33.402Z,14.75
2019-03-02T03:38:12.653Z,20.92
2019-03-02T03:40:52.586Z,17.05
2019-03-02T03:43:41.454Z,16.70
2019-03-02T03:46:18.078Z,20.43
2019-03-02T03:48:58.062Z,17.50
2019-03-02T03:51:38.234Z,16.52
2019-03-02T03:54:17.995Z,19.67
2019-03-02T03:56:58.110Z,23.25
2019-03-02T03:59:38.071Z,19.42
2019-03-02T04:02:18.279Z,20.00
2019-03-02T04:05:03.130Z,19.90
2019-03-02T04:07:49.046Z,20.02
2019-03-02T04:10:25.970Z,17.07
2019-03-02T04:13:06.289Z,19.40
2019-03-02T04:15:46.024Z,17.77
2019-03-02T04:18:55.534Z,20.20
2019-03-02T04:21:42.189Z,21.80
2019-03-02T04:24:22.163Z,20.70
2019-03-02T04:27:04.009Z,20.25
2019-03-02T04:29:49.694Z,19.30
2019-03-02T04:32:29.013Z,16.93
2019-03-02T04:35:10.053Z,22.93
2019-03-02T04:37:52.080Z,21.17
2019-03-02T04:40:32.461Z,21.60
2019-03-02T04:43:12.307Z,21.52
2019-03-02T04:45:52.108Z,20.37
2019-03-02T04:48:31.865Z,22.32
2019-03-02T04:51:11.891Z,27.60
2019-03-02T04:53:53.696Z,25.23
2019-03-02T04:56:33.450Z,28.15
2019-03-02T04:59:14.350Z,27.22
2019-03-02T05:01:54.468Z,29.25
2019-03-02T05:04:34.151Z,30.62
2019-03-02T05:07:14.639Z,34.13
2019-03-02T05:09:54.456Z,30.17
2019-03-02T05:12:34.318Z,31.85
2019-03-02T05:15:16.061Z,35.08
2019-03-02T05:17:55.215Z,31.12
2019-03-02T05:20:37.683Z,35.43
2019-03-02T05:23:15.867Z,34.70
2019-03-02T05:25:55.561Z,40.80
2019-03-02T05:28:39.597Z,37.15
2019-03-02T05:31:22.818Z,36.35
2019-03-02T05:34:04.604Z,39.13
2019-03-02T05:36:43.913Z,45.40
2019-03-02T05:39:24.196Z,34.53
2019-03-02T05:42:03.923Z,38.30
2019-03-02T05:44:44.018Z,39.80
2019-03-02T05:47:24.809Z,39.75
2019-03-02T05:50:05.253Z,41.28
2019-03-02T05:52:45.278Z,42.50
2019-03-02T05:55:25.136Z,41.63
2019-03-02T05:58:05.864Z,45.63
2019-03-02T06:00:45.934Z,41.30
2019-03-02T06:03:26.731Z,39.18
2019-03-02T06:06:06.753Z,43.35
2019-03-02T06:08:46.416Z,39.55
2019-03-02T06:11:26.389Z,45.12
2019-03-02T06:14:07.923Z,44.13
2019-03-02T06:16:47.574Z,44.42
2019-03-02T06:19:28.503Z,42.45
2019-03-02T06:22:11.075Z,45.40
2019-03-02T06:24:50.292Z,45.63
2019-03-02T06:27:30.381Z,42.43
2019-03-02T06:30:12.775Z,40.52
2019-03-02T06:32:52.845Z,40.67
2019-03-02T06:35:33.067Z,39.23
2019-03-02T06:38:13.692Z,40.25
2019-03-02T06:40:54.914Z,36.38
2019-03-02T06:43:35.578Z,42.50
2019-03-02T06:46:15.872Z,41.30
2019-03-02T06:48:56.476Z,38.60
2019-03-02T06:51:36.280Z,40.58
2019-03-02T06:54:16.682Z,35.68
2019-03-02T06:56:58.215Z,45.38
2019-03-02T06:59:39.304Z,49.08
2019-03-02T07:02:20.085Z,40.98
2019-03-02T07:05:00.338Z,34.30
2019-03-02T07:07:41.061Z,34.08
2019-03-02T07:10:22.006Z,31.33
2019-03-02T07:13:04.412Z,33.70
2019-03-02T07:15:45.019Z,31.97
2019-03-02T07:18:46.983Z,36.95
2019-03-02T07:21:27.582Z,33.08
2019-03-02T07:24:07.513Z,34.58
2019-03-02T07:26:47.537Z,42.30
2019-03-02T07:29:27.661Z,31.75
2019-03-02T07:32:07.700Z,33.08
2019-03-02T07:34:47.742Z,34.18
2019-03-02T07:37:28.021Z,31.60
2019-03-02T07:40:09.115Z,33.35
2019-03-02T07:42:50.222Z,32.03
2019-03-02T07:45:31.315Z,37.93
2019-03-02T07:48:12.493Z,33.75
2019-03-02T07:50:53.468Z,30.97
2019-03-02T07:53:36.351Z,33.85
2019-03-02T07:56:16.142Z,31.82
2019-03-02T07:58:56.533Z,28.80
2019-03-02T08:01:36.284Z,24.67
2019-03-02T08:04:16.794Z,28.17
2019-03-02T08:07:01.490Z,33.78
2019-03-02T08:09:41.392Z,29.18
2019-03-02T08:12:24.856Z,28.73
2019-03-02T08:15:02.772Z,24.35
2019-03-02T08:17:45.603Z,29.95
2019-03-02T08:20:26.218Z,26.07
2019-03-02T08:23:06.478Z,30.43
2019-03-02T08:25:48.724Z,29.72
2019-03-02T08:28:28.694Z,29.35
2019-03-02T08:31:09.988Z,25.50
2019-03-02T08:33:49.701Z,27.95
2019-03-02T08:36:29.768Z,25.77
2019-03-02T08:39:10.699Z,27.55
2019-03-02T08:41:53.114Z,29.00
2019-03-02T08:44:35.228Z,24.90
2019-03-02T08:47:15.129Z,25.85
2019-03-02T08:49:55.812Z,22.90
2019-03-02T08:52:35.967Z,26.77
2019-03-02T08:55:16.453Z,30.62
2019-03-02T08:57:57.428Z,26.57
2019-03-02T09:00:39.019Z,26.02
2019-03-02T09:03:19.314Z,21.23
2019-03-02T09:05:59.108Z,23.38
2019-03-02T09:08:38.914Z,24.40
2019-03-02T09:11:18.903Z,21.87
2019-03-02T09:13:58.730Z,24.45
2019-03-02T09:16:41.619Z,24.00
2019-03-02T09:19:23.180Z,23.83
2019-03-02T09:22:02.909Z,21.05
2019-03-02T09:24:45.763Z,21.97
2019-03-02T09:27:24.349Z,21.60
2019-03-02T09:30:05.936Z,20.37
2019-03-02T09:32:47.120Z,22.13
2019-03-02T09:35:28.600Z,31.90
2019-03-02T09:38:08.374Z,24.77
2019-03-02T09:40:50.062Z,22.27
2019-03-02T09:43:29.868Z,22.87
2019-03-02T09:46:09.619Z,25.15
2019-03-02T09:48:49.493Z,22.60
2019-03-02T09:51:31.801Z,36.05
2019-03-02T09:54:11.560Z,26.42
2019-03-02T09:56:51.789Z,21.62
2019-03-02T09:59:31.516Z,23.07
2019-03-02T10:02:14.400Z,21.30
2019-03-02T10:04:54.754Z,25.70
2019-03-02T10:07:37.864Z,21.82
2019-03-02T10:10:16.353Z,20.57
2019-03-02T10:12:56.518Z,28.55
2019-03-02T10:15:36.163Z,25.45
2019-03-02T10:18:16.429Z,22.55
2019-03-02T10:20:56.217Z,50.85
2019-03-02T10:23:39.025Z,24.52
2019-03-02T10:26:17.552Z,21.30
2019-03-02T10:29:00.029Z,21.57
2019-03-02T10:31:43.987Z,27.50
2019-03-02T10:34:27.101Z,26.87
2019-03-02T10:37:07.446Z,26.20
2019-03-02T10:39:48.494Z,24.37
2019-03-02T10:42:28.232Z,28.32
2019-03-02T10:45:10.338Z,22.15
2019-03-02T10:47:50.104Z,22.35
2019-03-02T10:50:30.246Z,25.65
2019-03-02T10:53:09.945Z,22.05
2019-03-02T10:55:49.789Z,26.52
2019-03-02T10:58:34.650Z,22.27
2019-03-02T11:01:13.665Z,22.58
2019-03-02T11:03:53.393Z,26.27
2019-03-02T11:06:51.161Z,25.17
2019-03-02T11:09:49.759Z,20.23
2019-03-02T11:12:43.571Z,21.27
2019-03-02T11:15:43.688Z,25.20
2019-03-02T11:18:47.109Z,24.18
2019-03-02T11:21:36.678Z,24.50
2019-03-02T11:24:35.242Z,25.05
2019-03-02T11:27:32.791Z,22.05
2019-03-02T11:30:29.330Z,23.87
2019-03-02T11:33:27.456Z,26.35
2019-03-02T11:36:26.489Z,26.75
2019-03-02T11:39:33.190Z,24.37
2019-03-02T11:42:24.489Z,24.45
2019-03-02T11:45:29.833Z,26.00
2019-03-02T11:48:27.358Z,26.37
2019-03-02T11:51:41.409Z,26.15
2019-03-02T11:54:40.480Z,25.32
2019-03-02T11:57:40.829Z,25.80
2019-03-02T12:00:45.048Z,25.97
2019-03-02T12:03:41.609Z,27.00
2019-03-02T12:06:47.981Z,24.25
2019-03-02T12:09:54.848Z,24.67
2019-03-02T12:12:44.260Z,22.52
2019-03-02T12:15:45.961Z,27.02
2019-03-02T12:18:42.639Z,24.23
2019-03-02T12:21:47.001Z,27.37
2019-03-02T12:24:44.794Z,25.80
2019-03-02T12:27:48.357Z,25.15
2019-03-02T12:30:36.477Z,20.30
2019-03-02T12:33:32.588Z,19.27
2019-03-02T12:36:26.095Z,19.05
2019-03-02T12:39:20.034Z,19.70
2019-03-02T12:42:36.855Z,20.90
2019-03-02T12:45:30.040Z,18.70
2019-03-02T12:48:39.715Z,17.50
2019-03-02T12:51:38.929Z,23.45
2019-03-02T12:54:43.348Z,17.25
2019-03-02T12:57:53.898Z,17.75
2019-03-02T13:00:54.583Z,16.30
2019-03-02T13:03:51.991Z,21.30
2019-03-02T13:07:10.293Z,19.00
2019-03-02T13:10:05.512Z,18.92
2019-03-02T13:13:10.119Z,16.05
2019-03-02T13:16:07.428Z,15.83
2019-03-02T13:19:04.887Z,17.77
2019-03-02T13:22:10.070Z,17.17
2019-03-02T13:25:09.062Z,17.67
2019-03-02T13:27:56.763Z,19.73
2019-03-02T13:31:03.455Z,17.85
2019-03-02T13:33:54.558Z,18.12
2019-03-02T13:36:56.536Z,15.93
2019-03-02T13:39:41.931Z,23.42
2019-03-02T13:42:51.065Z,17.60
2019-03-02T13:45:55.520Z,17.20
2019-03-02T13:49:01.753Z,19.65
2019-03-02T13:52:07.498Z,20.37
2019-03-02T13:55:14.372Z,16.93
2019-03-02T13:58:14.171Z,17.57
2019-03-02T14:01:16.745Z,19.95
2019-03-02T14:04:33.495Z,18.10
2019-03-02T14:07:36.238Z,18.30
2019-03-02T14:10:32.569Z,17.07
2019-03-02T14:13:21.197Z,21.45
2019-03-02T14:16:32.159Z,20.60
2019-03-02T14:19:26.785Z,18.92
2019-03-02T14:22:28.488Z,19.10
2019-03-02T14:25:37.269Z,21.12
2019-03-02T14:28:36.367Z,18.55
2019-03-02T14:31:37.958Z,22.02
2019-03-02T14:34:43.741Z,20.45
2019-03-02T14:37:34.405Z,19.95
2019-03-02T14:40:23.059Z,19.05
2019-03-02T14:43:15.859Z,19.73
2019-03-02T14:46:07.136Z,22.95
2019-03-02T14:49:05.819Z,21.02
2019-03-02T14:52:03.417Z,20.85
2019-03-02T14:54:56.910Z,22.98
2019-03-02T14:57:53.406Z,18.65
2019-03-02T15:00:53.667Z,19.15
2019-03-02T15:03:51.302Z,17.00
2019-03-02T15:06:40.475Z,16.90
2019-03-02T15:09:30.456Z,19.17
2019-03-02T15:12:36.979Z,18.87
2019-03-02T15:15:36.236Z,19.45
2019-03-02T15:18:29.175Z,18.20
2019-03-02T15:21:33.852Z,18.27
2019-03-02T15:24:24.880Z,20.70
2019-03-02T15:27:23.583Z,17.73
2019-03-02T15:30:23.217Z,18.73
2019-03-02T15:33:21.618Z,19.57
2019-03-02T15:36:26.394Z,17.77
2019-03-02T15:39:35.989Z,19.77
2019-03-02T15:42:32.192Z,21.15
2019-03-02T15:45:36.812Z,20.25
2019-03-02T15:48:32.278Z,21.93
2019-03-02T15:51:30.939Z,22.00
2019-03-02T15:54:31.804Z,21.12
2019-03-02T15:57:21.610Z,19.02
2019-03-02T16:00:19.428Z,19.07
2019-03-02T16:03:19.109Z,21.93
2019-03-02T16:06:14.221Z,21.42
2019-03-02T16:09:11.936Z,21.87
2019-03-02T16:12:10.694Z,19.62
2019-03-02T16:15:08.871Z,20.30
2019-03-02T16:18:03.357Z,19.95
2019-03-02T16:20:56.544Z,21.17
2019-03-02T16:23:58.568Z,19.48
2019-03-02T16:26:52.976Z,20.12
2019-03-02T16:30:01.747Z,20.48
2019-03-02T16:33:12.831Z,19.95
2019-03-02T16:36:03.524Z,19.95
2019-03-02T16:38:48.185Z,24.55
2019-03-02T16:41:37.760Z,22.00
2019-03-02T16:44:31.558Z,25.12
2019-03-02T16:47:18.726Z,20.45
2019-03-02T16:50:07.539Z,24.30
2019-03-02T16:53:05.456Z,28.10
2019-03-02T16:55:51.691Z,26.65
2019-03-02T16:58:53.453Z,27.27
2019-03-02T17:01:52.537Z,28.15
2019-03-02T17:05:01.800Z,39.98
2019-03-02T17:08:09.733Z,31.07
2019-03-02T17:10:59.722Z,25.30
2019-03-02T17:13:57.526Z,25.08
2019-03-02T17:16:46.519Z,23.52
2019-03-02T17:19:31.766Z,26.73
2019-03-02T17:22:32.392Z,23.32
2019-03-02T17:25:30.514Z,24.55
2019-03-02T17:28:35.383Z,25.15
2019-03-02T17:31:42.842Z,28.27
2019-03-02T17:34:41.792Z,29.92
2019-03-02T17:37:55.742Z,25.65
2019-03-02T17:40:43.179Z,25.00
2019-03-02T17:43:57.230Z,24.30
2019-03-02T17:46:43.038Z,23.73
2019-03-02T17:49:41.024Z,26.90
2019-03-02T17:52:32.203Z,25.82
2019-03-02T17:55:31.519Z,26.10
2019-03-02T17:58:48.684Z,25.82
2019-03-02T18:01:44.753Z,25.15
2019-03-02T18:04:46.481Z,28.52
2019-03-02T18:07:43.205Z,25.20
2019-03-02T18:10:41.322Z,23.40
2019-03-02T18:13:43.274Z,23.07
2019-03-02T18:16:41.410Z,21.42
2019-03-02T18:19:22.426Z,23.00
2019-03-02T18:22:02.440Z,23.18
2019-03-02T18:24:42.107Z,22.40
2019-03-02T18:27:22.378Z,23.02
2019-03-02T18:30:06.113Z,24.07
2019-03-02T18:32:49.660Z,24.55
2019-03-02T18:35:29.615Z,22.42
2019-03-02T18:38:12.617Z,22.58
2019-03-02T18:40:52.174Z,19.95
2019-03-02T18:43:33.427Z,20.57
2019-03-02T18:46:16.458Z,21.87
2019-03-02T18:49:19.912Z,19.67
2019-03-02T18:52:21.344Z,18.65
2019-03-02T18:55:00.539Z,19.17
2019-03-02T18:57:40.253Z,20.55
2019-03-02T19:00:23.660Z,19.75
2019-03-02T19:03:04.038Z,21.68
2019-03-02T19:05:46.263Z,22.25
2019-03-02T19:08:25.755Z,18.07
2019-03-02T19:11:06.116Z,23.02
2019-03-02T19:13:46.295Z,22.55
2019-03-02T19:16:26.319Z,27.22
2019-03-02T19:19:06.376Z,25.48
2019-03-02T19:21:52.318Z,23.00
2019-03-02T19:24:32.112Z,25.20
2019-03-02T19:27:13.435Z,24.05
2019-03-02T19:29:53.321Z,22.67
2019-03-02T19:32:33.201Z,23.55
2019-03-02T19:35:13.992Z,23.10
2019-03-02T19:37:54.041Z,23.40
2019-03-02T19:40:33.937Z,25.80
2019-03-02T19:43:17.394Z,24.67
2019-03-02T19:45:58.160Z,22.70
2019-03-02T19:48:40.834Z,23.22
2019-03-02T19:51:23.783Z,21.37
2019-03-02T19:54:03.825Z,26.15
2019-03-02T19:56:43.695Z,23.67
2019-03-02T19:59:23.532Z,26.50
2019-03-02T20:02:03.631Z,26.25
2019-03-02T20:04:45.185Z,24.55
2019-03-02T20:07:25.928Z,25.85
2019-03-02T20:10:08.776Z,31.42
2019-03-02T20:12:48.948Z,28.23
2019-03-02T20:15:31.751Z,27.87
2019-03-02T20:18:15.887Z,26.05
2019-03-02T20:20:55.954Z,25.32
2019-03-02T20:23:37.421Z,25.43
2019-03-02T20:26:17.497Z,26.40
2019-03-02T20:28:57.766Z,27.60
2019-03-02T20:31:37.697Z,26.33
2019-03-02T20:34:19.033Z,34.53
2019-03-02T20:36:59.251Z,27.55
2019-03-02T20:39:39.183Z,30.90
2019-03-02T20:42:19.164Z,27.90
2019-03-02T20:44:58.857Z,32.53
2019-03-02T20:47:41.242Z,30.37
2019-03-02T20:50:21.131Z,31.73
2019-03-02T20:53:01.195Z,36.95
2019-03-02T20:55:40.984Z,31.65
2019-03-02T20:58:21.171Z,33.63
2019-03-02T21:01:03.072Z,31.02
2019-03-02T21:03:43.004Z,31.87
2019-03-02T21:06:23.000Z,37.13
2019-03-02T21:09:06.406Z,35.95
2019-03-02T21:11:47.779Z,31.40
2019-03-02T21:14:27.834Z,29.98
2019-03-02T21:17:08.033Z,33.55
2019-03-02T21:19:47.940Z,35.00
2019-03-02T21:22:27.858Z,34.58
2019-03-02T21:25:08.681Z,33.58
2019-03-02T21:27:50.389Z,34.80
2019-03-02T21:30:30.679Z,31.00
2019-03-02T21:33:12.018Z,35.23
2019-03-02T21:35:54.853Z,33.48
2019-03-02T21:38:34.743Z,33.20
2019-03-02T21:41:14.684Z,29.95
2019-03-02T21:43:54.447Z,36.80
2019-03-02T21:46:34.643Z,32.55
2019-03-02T21:49:14.921Z,33.60
2019-03-02T21:51:54.741Z,32.78
2019-03-02T21:54:34.614Z,32.38
2019-03-02T21:57:14.402Z,32.70
2019-03-02T21:59:54.827Z,32.20
2019-03-02T22:02:38.602Z,32.42
2019-03-02T22:05:19.936Z,36.33
2019-03-02T22:08:00.769Z,35.70
2019-03-02T22:10:46.268Z,38.35
2019-03-02T22:13:25.969Z,36.30
2019-03-02T22:16:06.004Z,34.30
2019-03-02T22:18:45.835Z,35.45
2019-03-02T22:21:25.564Z,37.08
2019-03-02T22:24:05.497Z,35.65
2019-03-02T22:26:45.166Z,39.95
2019-03-02T22:29:25.567Z,37.35
2019-03-02T22:32:05.310Z,37.33
2019-03-02T22:34:45.345Z,33.50
2019-03-02T22:37:25.075Z,37.20
2019-03-02T22:40:06.252Z,38.55
2019-03-02T22:42:46.141Z,36.70
2019-03-02T22:45:25.990Z,41.48
2019-03-02T22:48:05.838Z,34.45
2019-03-02T22:50:46.815Z,34.00
2019-03-02T22:53:27.911Z,38.40
2019-03-02T22:56:10.148Z,38.85
2019-03-02T22:58:48.964Z,33.90
2019-03-02T23:01:59.454Z,35.45
2019-03-02T23:04:41.005Z,38.50
2019-03-02T23:07:23.097Z,41.08
2019-03-02T23:10:02.506Z,37.28
2019-03-02T23:12:43.275Z,39.08
2019-03-02T23:15:23.505Z,38.08
2019-03-02T23:18:03.145Z,38.17
2019-03-02T23:20:43.641Z,40.35
2019-03-02T23:23:25.890Z,37.48
2019-03-02T23:26:05.783Z,38.67
2019-03-02T23:28:45.649Z,37.73
2019-03-02T23:31:25.451Z,37.45
2019-03-02T23:34:08.344Z,35.52
2019-03-02T23:36:49.430Z,33.95
2019-03-02T23:39:29.606Z,38.65
2019-03-02T23:42:09.374Z,36.60
2019-03-02T23:44:49.296Z,36.60
2019-03-02T23:47:29.075Z,39.78
2019-03-02T23:50:09.299Z,39.10
2019-03-02T23:52:49.220Z,37.30
2019-03-02T23:55:30.302Z,34.70
2019-03-02T23:58:11.731Z,36.03
